Time;durP1;ratioP1;P1;durP2;ratioP2;P2;SDS_P1;SDS_P2;PMS_P1;PMS_P2;Temp;Humidity;BMP_temperature;BMP_pressure;BME280_temperature;BME280_humidity;BME280_pressure;Samples;Min_cycle;Max_cycle;Signal;HPM_P1;HPM_P2
2021/07/03 00:00:54;;;;;;;5.07;2.20;;;;;;;20.20;54.23;100608.88;3555453;40;20496;-78
2021/07/03 00:03:21;;;;;;;6.78;2.58;;;;;;;20.18;55.89;100613.44;3570722;40;20069;-78
2021/07/03 00:05:55;;;;;;;5.83;1.93;;;;;;;20.22;53.83;100608.75;3558010;40;20060;-78
2021/07/03 00:08:27;;;;;;;7.07;2.67;;;;;;;20.15;55.40;100604.81;3563777;40;20065;-78
2021/07/03 00:11:05;;;;;;;10.43;3.80;;;;;;;20.17;54.93;100602.91;3576205;40;20053;-78
2021/07/03 00:13:35;;;;;;;11.35;4.72;;;;;;;20.14;55.18;100598.66;3572384;40;20126;-79
2021/07/03 00:16:05;;;;;;;6.93;2.80;;;;;;;20.14;54.35;100595.16;3574552;40;20507;-78
2021/07/03 00:18:36;;;;;;;5.68;2.15;;;;;;;20.15;54.57;100607.47;3574637;40;20060;-78
2021/07/03 00:21:04;;;;;;;7.10;2.20;;;;;;;20.15;55.28;100604.81;3542928;40;20447;-78
2021/07/03 00:23:32;;;;;;;5.47;2.30;;;;;;;20.09;55.27;100594.59;3565228;40;20113;-78
2021/07/03 00:26:00;;;;;;;4.97;1.90;;;;;;;20.09;54.39;100594.59;3565287;40;20055;-78
2021/07/03 00:28:33;;;;;;;5.47;1.95;;;;;;;20.09;54.94;100600.75;3555864;40;20073;-78
2021/07/03 00:31:04;;;;;;;3.88;1.58;;;;;;;20.09;54.36;100594.59;3563810;40;21929;-78
2021/07/03 00:33:35;;;;;;;5.75;2.33;;;;;;;20.05;56.04;100590.44;3551496;40;20113;-77
2021/07/03 00:36:02;;;;;;;5.45;2.28;;;;;;;20.06;56.15;100594.78;3566999;40;20045;-78
2021/07/03 00:38:31;;;;;;;4.80;2.00;;;;;;;20.04;55.86;100586.94;3561772;40;20042;-78
2021/07/03 00:40:58;;;;;;;9.02;4.00;;;;;;;20.03;56.60;100579.94;3559748;40;20069;-78
2021/07/03 00:43:27;;;;;;;6.70;3.05;;;;;;;20.01;55.45;100573.03;3573556;40;20343;-77
2021/07/03 00:45:54;;;;;;;5.93;2.47;;;;;;;20.00;56.22;100568.69;3579235;40;20107;-78
2021/07/03 00:48:23;;;;;;;7.28;2.88;;;;;;;19.96;56.82;100568.03;3575193;40;20046;-78
2021/07/03 00:51:15;;;;;;;6.43;2.85;;;;;;;20.07;54.91;100591.19;3553191;40;20069;-77
2021/07/03 00:54:08;;;;;;;5.80;2.50;;;;;;;20.05;54.78;100582.50;3544655;40;20058;-77
2021/07/03 00:56:38;;;;;;;6.22;2.42;;;;;;;19.98;56.19;100574.09;3558696;40;20057;-78
2021/07/03 00:59:04;;;;;;;6.20;2.70;;;;;;;19.90;57.06;100561.31;3565116;40;20053;-77
2021/07/03 01:01:33;;;;;;;5.28;2.42;;;;;;;19.92;57.27;100566.50;3561138;40;20136;-78
2021/07/03 01:04:02;;;;;;;5.60;2.30;;;;;;;19.98;56.32;100574.09;3566634;40;20057;-78
2021/07/03 01:06:31;;;;;;;5.18;2.22;;;;;;;19.92;56.54;100566.50;3561099;40;20081;-78
2021/07/03 01:08:59;;;;;;;5.63;2.35;;;;;;;19.88;56.50;100559.72;3568719;40;20065;-78
2021/07/03 01:11:27;;;;;;;3.70;1.90;;;;;;;19.86;56.42;100567.75;3555131;40;20057;-78
2021/07/03 01:13:57;;;;;;;;;;;;;;;19.94;54.28;100569.94;3563180;40;20079;-78
2021/07/03 01:16:29;;;;;;;4.32;1.63;;;;;;;19.88;56.01;100565.88;3555767;40;20269;-77
2021/07/03 01:18:58;;;;;;;5.35;2.20;;;;;;;19.80;56.03;100544.28;3546817;40;20073;-78
2021/07/03 01:21:29;;;;;;;5.57;2.42;;;;;;;19.85;56.77;100555.44;3573367;40;20077;-78
2021/07/03 01:23:57;;;;;;;4.63;2.08;;;;;;;19.81;56.94;100548.63;3542356;40;20109;-78
2021/07/03 01:26:28;;;;;;;5.43;2.25;;;;;;;19.79;56.57;100555.00;3549919;40;20059;-78
2021/07/03 01:29:00;;;;;;;3.70;1.80;;;;;;;19.76;55.96;100550.72;3561756;40;20057;-78
2021/07/03 01:31:33;;;;;;;5.47;2.25;;;;;;;19.73;56.93;100550.94;3556756;40;20769;-78
2021/07/03 01:34:02;;;;;;;3.35;1.90;;;;;;;19.69;56.59;100550.28;3547069;40;20065;-78
2021/07/03 01:36:33;;;;;;;7.43;3.40;;;;;;;19.67;57.81;100551.34;3560459;40;20122;-78
2021/07/03 01:39:01;;;;;;;6.53;3.25;;;;;;;19.69;57.19;100554.72;3565718;40;20041;-78
2021/07/03 01:41:32;;;;;;;8.20;3.58;;;;;;;19.64;57.26;100551.53;3556906;40;20064;-78
2021/07/03 01:44:01;;;;;;;7.53;3.25;;;;;;;19.62;57.16;100564.03;3561057;40;20045;-78
2021/07/03 01:46:29;;;;;;;4.15;2.10;;;;;;;19.60;56.87;100556.16;3555171;40;20066;-78
2021/07/03 01:49:07;;;;;;;5.85;2.20;;;;;;;19.60;56.74;100560.59;3573119;40;20109;-77
2021/07/03 01:51:46;;;;;;;4.78;2.22;;;;;;;19.60;57.37;100550.00;3558248;40;20089;-78
2021/07/03 01:54:18;;;;;;;5.18;2.30;;;;;;;19.57;57.21;100553.69;3572642;40;20073;-77
2021/07/03 01:56:58;;;;;;;6.63;2.28;;;;;;;19.41;57.22;100522.00;3569114;40;20085;-78
2021/07/03 01:59:43;;;;;;;7.63;3.10;;;;;;;19.51;57.51;100530.19;3553665;40;20400;-77
2021/07/03 02:02:18;;;;;;;5.45;2.50;;;;;;;19.52;57.27;100541.66;3557456;40;20061;-78
2021/07/03 02:04:49;;;;;;;6.20;2.65;;;;;;;19.46;58.51;100529.63;3561761;40;20064;-78
2021/07/03 02:07:20;;;;;;;5.75;2.63;;;;;;;19.47;58.20;100523.41;3571867;40;20052;-77
2021/07/03 02:10:12;;;;;;;5.05;2.15;;;;;;;19.53;56.32;100540.72;3569223;40;20067;-78
2021/07/03 02:12:41;;;;;;;5.00;2.10;;;;;;;19.42;57.61;100531.66;3567112;40;20053;-78
2021/07/03 02:15:18;;;;;;;5.55;2.30;;;;;;;19.44;57.42;100534.19;3567365;40;20073;-78
2021/07/03 02:17:57;;;;;;;7.10;2.95;;;;;;;19.44;58.21;100535.03;3564566;40;20065;-78
2021/07/03 02:20:25;;;;;;;8.93;3.22;;;;;;;19.40;57.17;100522.94;3573047;40;20049;-78
2021/07/03 02:23:16;;;;;;;7.05;3.00;;;;;;;19.38;57.38;100523.97;3572882;40;20052;-78
2021/07/03 02:25:48;;;;;;;8.75;3.70;;;;;;;19.28;57.95;100510.47;3567291;40;20061;-78
2021/07/03 02:28:22;;;;;;;7.60;2.60;;;;;;;19.30;57.60;100521.78;3573683;40;20045;-77
2021/07/03 02:30:57;;;;;;;8.43;2.97;;;;;;;19.25;58.48;100515.94;3561430;40;20081;-78
2021/07/03 02:33:27;;;;;;;7.47;2.78;;;;;;;19.27;58.15;100515.84;3568210;40;20116;-78
2021/07/03 02:36:28;;;;;;;5.60;2.15;;;;;;;19.29;56.83;100513.97;3563221;40;20056;-78
2021/07/03 02:38:58;;;;;;;6.28;2.63;;;;;;;19.19;57.97;100497.78;3572063;40;20057;-78
2021/07/03 02:41:34;;;;;;;5.80;2.15;;;;;;;19.21;57.68;100506.50;3571937;40;20053;-78
2021/07/03 02:44:03;;;;;;;5.63;2.08;;;;;;;19.18;57.77;100496.09;3581893;40;20041;-78
2021/07/03 02:46:31;;;;;;;8.15;2.75;;;;;;;19.19;58.47;100497.78;3558347;40;20439;-78
2021/07/03 02:49:00;;;;;;;6.03;2.65;;;;;;;19.17;58.27;100500.53;3563181;40;20348;-78
2021/07/03 02:51:28;;;;;;;7.15;2.78;;;;;;;19.21;58.67;100509.16;3571746;40;20057;-78
2021/07/03 02:54:00;;;;;;;7.82;3.20;;;;;;;19.18;57.76;100496.94;3577124;40;20065;-78
2021/07/03 02:56:34;;;;;;;7.15;2.60;;;;;;;19.19;57.86;100501.28;3563555;40;20060;-78
2021/07/03 02:59:03;;;;;;;3.88;1.63;;;;;;;19.10;57.96;100493.91;3553495;40;20043;-78
2021/07/03 03:01:31;;;;;;;7.15;3.35;;;;;;;19.14;58.59;100490.13;3546721;40;20057;-78
2021/07/03 03:04:04;;;;;;;6.93;2.50;;;;;;;19.12;57.95;100488.53;3569426;40;20052;-78
2021/07/03 03:06:32;;;;;;;6.50;3.03;;;;;;;19.04;58.83;100486.34;3560899;40;20289;-77
2021/07/03 03:08:59;;;;;;;4.72;1.98;;;;;;;19.10;58.90;100483.31;3549044;40;20425;-78
2021/07/03 03:11:29;;;;;;;6.15;2.40;;;;;;;19.07;58.71;100477.38;3577628;40;20056;-78
2021/07/03 03:13:58;;;;;;;5.00;1.85;;;;;;;19.13;58.45;100482.28;3578361;40;20050;-78
2021/07/03 03:16:52;;;;;;;4.57;2.20;;;;;;;19.17;57.65;100489.09;3566817;40;20070;-77
2021/07/03 03:19:20;;;;;;;5.05;2.15;;;;;;;19.11;58.67;100478.88;3573292;40;20092;-77
2021/07/03 03:21:50;;;;;;;5.55;2.58;;;;;;;19.12;59.27;100481.44;3574741;40;20099;-78
2021/07/03 03:24:17;;;;;;;6.00;2.58;;;;;;;19.09;59.51;100475.47;3568139;40;20521;-78
2021/07/03 03:26:46;;;;;;;5.75;2.30;;;;;;;19.07;58.96;100472.09;3570720;40;20069;-78
2021/07/03 03:29:15;;;;;;;5.13;2.30;;;;;;;19.10;59.32;100471.88;3563911;40;20064;-78
2021/07/03 03:31:42;;;;;;;5.10;2.50;;;;;;;19.07;58.92;100472.94;3574147;40;20068;-77
2021/07/03 03:34:10;;;;;;;7.18;3.50;;;;;;;19.06;59.58;100465.06;3567355;40;20045;-78
2021/07/03 03:37:03;;;;;;;;;;;;;;;19.14;57.01;100474.25;3564610;40;20123;-78
2021/07/03 03:39:33;;;;;;;4.20;1.83;;;;;;;19.07;59.69;100457.06;3571190;40;20211;-78
2021/07/03 03:42:01;;;;;;;6.03;2.72;;;;;;;18.95;59.32;100430.47;3571139;40;20056;-78
2021/07/03 03:44:35;;;;;;;6.22;2.75;;;;;;;19.06;59.61;100450.06;3558137;40;20056;-78
2021/07/03 03:47:03;;;;;;;6.18;2.53;;;;;;;19.02;59.92;100458.28;3580291;40;20073;-78
2021/07/03 03:49:57;;;;;;;7.68;3.88;;;;;;;19.08;58.43;100449.97;3552529;40;20061;-78
2021/07/03 03:52:34;;;;;;;3.55;1.90;;;;;;;19.02;59.19;100448.56;3574634;40;20060;-78
2021/07/03 03:55:03;;;;;;;4.38;2.05;;;;;;;19.01;59.73;100445.97;3557368;40;20061;-78
2021/07/03 03:57:33;;;;;;;7.57;2.78;;;;;;;18.99;60.31;100442.59;3573491;40;20053;-78
2021/07/03 04:00:12;;;;;;;6.82;2.88;;;;;;;18.97;60.03;100431.25;3559968;40;20061;-78
2021/07/03 04:02:42;;;;;;;4.90;2.20;;;;;;;18.95;60.70;100438.41;3561375;40;20050;-78
2021/07/03 04:05:15;;;;;;;7.78;3.28;;;;;;;18.87;60.65;100425.69;3579254;40;20061;-78
2021/07/03 04:07:45;;;;;;;6.97;3.20;;;;;;;18.89;60.87;100414.03;3546190;40;20430;-78
2021/07/03 04:10:14;;;;;;;6.30;2.83;;;;;;;18.84;60.21;100408.19;3554734;40;20134;-78
2021/07/03 04:12:43;;;;;;;5.82;2.55;;;;;;;18.87;60.73;100410.66;3567503;40;20414;-78
2021/07/03 04:15:11;;;;;;;6.95;3.05;;;;;;;18.86;60.91;100413.41;3564273;40;20050;-78
2021/07/03 04:17:39;;;;;;;;;;;;;;;18.89;58.04;100415.84;3565022;40;20485;-78
2021/07/03 04:20:08;;;;;;;6.05;2.67;;;;;;;18.81;60.73;100395.16;3566631;40;19941;-78
2021/07/03 04:22:36;;;;;;;3.97;1.80;;;;;;;18.81;60.61;100403.09;3576970;40;20075;-77
2021/07/03 04:25:11;;;;;;;4.18;1.88;;;;;;;18.82;59.73;100418.03;3576594;40;20113;-77
2021/07/03 04:27:41;;;;;;;4.57;2.17;;;;;;;18.77;60.46;100428.03;3565898;40;20069;-78
2021/07/03 04:30:10;;;;;;;8.98;3.72;;;;;;;18.73;60.53;100426.50;3566593;40;20081;-78
2021/07/03 04:32:43;;;;;;;8.98;2.92;;;;;;;18.70;60.81;100431.97;3559753;40;20400;-78
2021/07/03 04:35:16;;;;;;;7.15;3.53;;;;;;;18.67;60.67;100427.72;3569627;40;20776;-77
2021/07/03 04:37:49;;;;;;;7.38;3.10;;;;;;;18.61;60.32;100424.59;3571010;40;20067;-77
2021/07/03 04:40:16;;;;;;;6.57;2.78;;;;;;;18.57;61.04;100438.94;3576365;40;20085;-78
2021/07/03 04:42:45;;;;;;;6.03;2.88;;;;;;;18.54;62.00;100439.13;3556787;40;20293;-78
2021/07/03 04:45:18;;;;;;;6.18;2.80;;;;;;;18.51;61.93;100441.97;3570249;40;20060;-76
2021/07/03 04:47:45;;;;;;;7.10;3.15;;;;;;;18.41;62.73;100431.94;3570905;40;20318;-78
2021/07/03 04:50:13;;;;;;;6.15;2.95;;;;;;;18.35;62.38;100432.28;3570194;40;20441;-78
2021/07/03 04:52:40;;;;;;;8.88;3.13;;;;;;;18.32;62.55;100437.75;3563676;40;20311;-77
2021/07/03 04:55:11;;;;;;;6.80;2.65;;;;;;;18.31;62.13;100436.06;3573177;40;20284;-78
2021/07/03 04:57:41;;;;;;;7.80;2.85;;;;;;;18.23;61.95;100438.28;3562977;40;20131;-78
2021/07/03 05:00:10;;;;;;;8.05;2.95;;;;;;;18.16;62.82;100439.59;3572237;40;20089;-78
2021/07/03 05:02:37;;;;;;;5.57;2.85;;;;;;;18.08;62.49;100434.75;3570150;40;20428;-77
2021/07/03 05:05:06;;;;;;;7.30;2.80;;;;;;;18.06;62.41;100435.78;3576793;40;20052;-78
2021/07/03 05:07:38;;;;;;;7.85;3.72;;;;;;;18.07;63.03;100448.06;3579687;40;20061;-78
2021/07/03 05:10:12;;;;;;;7.60;3.78;;;;;;;18.01;63.30;100437.84;3568346;40;20045;-78
2021/07/03 05:12:39;;;;;;;7.35;3.22;;;;;;;17.95;63.40;100440.84;3567006;40;20046;-78
2021/07/03 05:15:10;;;;;;;9.18;3.85;;;;;;;17.85;63.32;100422.88;3565956;40;20292;-78
2021/07/03 05:17:37;;;;;;;7.78;3.63;;;;;;;17.83;63.84;100434.44;3558443;40;20427;-78
2021/07/03 05:20:07;;;;;;;6.97;3.30;;;;;;;17.83;63.70;100432.66;3573424;40;20068;-77
2021/07/03 05:22:34;;;;;;;8.02;2.38;;;;;;;17.73;64.49;100423.56;3567005;40;20078;-78
2021/07/03 05:25:06;;;;;;;6.43;2.78;;;;;;;17.75;63.37;100432.25;3579658;40;20049;-77
2021/07/03 05:27:34;;;;;;;7.20;3.25;;;;;;;17.63;64.71;100417.91;3560956;40;20103;-77
2021/07/03 05:30:28;;;;;;;8.68;3.47;;;;;;;17.74;62.13;100435.84;3553315;40;20099;-78
2021/07/03 05:32:54;;;;;;;5.68;2.70;;;;;;;17.66;64.72;100422.19;3569033;40;20053;-78
2021/07/03 05:35:21;;;;;;;5.35;2.30;;;;;;;17.67;63.98;100429.16;3574684;40;20114;-78
2021/07/03 05:37:54;;;;;;;10.03;3.03;;;;;;;17.69;64.42;100429.94;3561469;40;20859;-77
2021/07/03 05:40:21;;;;;;;7.38;3.10;;;;;;;17.68;65.51;100428.22;3573533;40;20106;-78
2021/07/03 05:42:57;;;;;;;6.93;2.88;;;;;;;17.68;63.33;100425.56;3584551;40;20457;-78
2021/07/03 05:45:25;;;;;;;7.73;3.40;;;;;;;17.61;65.04;100414.53;3577427;40;20146;-78
2021/07/03 05:47:55;;;;;;;7.43;3.08;;;;;;;17.64;64.07;100418.78;3580539;40;20053;-78
2021/07/03 05:50:27;;;;;;;5.53;2.20;;;;;;;17.64;64.18;100418.78;3568141;40;20055;-77
2021/07/03 05:52:56;;;;;;;6.22;2.67;;;;;;;17.60;64.01;100406.69;3564723;40;20053;-77
2021/07/03 05:55:25;;;;;;;7.00;2.83;;;;;;;17.60;64.54;100406.69;3556218;40;20085;-78
2021/07/03 05:57:51;;;;;;;18.17;2.63;;;;;;;17.61;64.10;100419.81;3585666;40;20049;-77
2021/07/03 06:00:21;;;;;;;9.37;2.97;;;;;;;17.60;64.17;100406.69;3571505;40;20411;-77
2021/07/03 06:02:51;;;;;;;7.63;3.35;;;;;;;17.62;63.83;100410.94;3579107;40;20888;-77
2021/07/03 06:05:19;;;;;;;6.93;2.60;;;;;;;17.56;64.26;100410.44;3569539;40;20057;-78
2021/07/03 06:07:47;;;;;;;4.97;2.33;;;;;;;17.62;63.87;100410.94;3573185;40;20135;-78
2021/07/03 06:10:15;;;;;;;6.72;2.50;;;;;;;17.53;63.97;100394.75;3584247;40;20053;-78
2021/07/03 06:12:49;;;;;;;;;;;;;;;17.73;60.93;100410.34;3573321;40;20945;-77
2021/07/03 06:15:16;;;;;;;6.63;2.60;;;;;;;17.62;64.06;100400.38;3580906;40;19941;-78
2021/07/03 06:17:48;;;;;;;7.57;2.47;;;;;;;17.75;63.27;100412.94;3576332;40;20052;-78
2021/07/03 06:20:15;;;;;;;10.15;3.05;;;;;;;17.76;64.47;100410.19;3570564;40;20061;-78
2021/07/03 06:22:42;;;;;;;6.97;2.70;;;;;;;17.78;64.70;100404.81;3579003;40;20091;-78
2021/07/03 06:25:13;;;;;;;6.68;2.83;;;;;;;17.84;64.22;100401.81;3569737;40;20264;-77
2021/07/03 06:27:41;;;;;;;7.65;3.10;;;;;;;17.79;64.33;100394.19;3573647;40;20049;-78
2021/07/03 06:30:09;;;;;;;8.57;3.17;;;;;;;17.82;64.57;100386.06;3570696;40;20363;-77
2021/07/03 06:32:40;;;;;;;7.38;3.10;;;;;;;17.87;63.82;100389.28;3571585;40;20146;-78
2021/07/03 06:35:09;;;;;;;8.38;2.88;;;;;;;17.84;64.40;100378.03;3577595;40;20407;-78
2021/07/03 06:37:36;;;;;;;8.43;2.75;;;;;;;17.89;64.75;100387.44;3578866;40;20053;-78
2021/07/03 06:40:03;;;;;;;6.43;2.95;;;;;;;17.95;64.19;100395.94;3587173;40;20362;-77
2021/07/03 06:42:30;;;;;;;;;;;;;;;18.08;61.09;100391.63;3571510;40;20123;-78
2021/07/03 06:44:58;;;;;;;5.97;2.65;;;;;;;17.97;63.64;100375.56;3580673;40;19946;-78
2021/07/03 06:47:25;;;;;;;6.95;3.42;;;;;;;18.07;63.80;100384.63;3584027;40;20813;-78
2021/07/03 06:49:54;;;;;;;7.30;2.67;;;;;;;18.07;64.51;100387.28;3582185;40;20065;-78
2021/07/03 06:52:22;;;;;;;6.20;2.58;;;;;;;18.03;64.02;100378.66;3567015;40;20065;-77
2021/07/03 06:54:49;;;;;;;5.55;2.20;;;;;;;18.08;64.20;100383.69;3561408;40;20058;-78
2021/07/03 06:57:18;;;;;;;6.05;2.85;;;;;;;18.13;63.79;100384.28;3574101;40;20061;-78
2021/07/03 06:59:45;;;;;;;6.00;2.63;;;;;;;18.13;64.23;100385.13;3561435;40;20096;-78
2021/07/03 07:02:17;;;;;;;;;;;;;;;18.23;61.45;100384.56;3582420;40;20105;-78
2021/07/03 07:04:49;;;;;;;4.38;2.00;;;;;;;18.21;63.83;100386.47;3568437;40;19941;-77
2021/07/03 07:07:16;;;;;;;6.38;2.42;;;;;;;18.18;64.55;100376.91;3570140;40;20414;-77
2021/07/03 07:09:43;;;;;;;7.00;2.67;;;;;;;18.14;65.13;100376.25;3575916;40;20095;-78
2021/07/03 07:12:12;;;;;;;6.97;2.85;;;;;;;18.24;63.88;100387.13;3568474;40;20064;-78
2021/07/03 07:14:41;;;;;;;6.97;2.33;;;;;;;18.26;64.81;100390.53;3554169;40;20465;-77
2021/07/03 07:17:10;;;;;;;6.28;2.55;;;;;;;18.26;64.14;100381.75;3551709;40;20077;-78
2021/07/03 07:19:38;;;;;;;7.10;2.63;;;;;;;18.27;64.09;100381.66;3570665;40;20126;-78
2021/07/03 07:22:07;;;;;;;;;;;;;;;18.36;61.20;100385.56;3560824;40;20079;-78
2021/07/03 07:24:34;;;;;;;5.47;2.30;;;;;;;18.27;63.67;100376.38;3545328;40;20011;-78
2021/07/03 07:27:01;;;;;;;4.90;2.20;;;;;;;18.30;64.04;100381.50;3526125;40;20054;-78
2021/07/03 07:29:28;;;;;;;8.48;2.97;;;;;;;18.25;64.11;100372.97;3551954;40;20459;-78
2021/07/03 07:31:57;;;;;;;7.60;2.50;;;;;;;18.33;63.52;100381.28;3568159;40;20061;-78
2021/07/03 07:34:31;;;;;;;6.50;2.92;;;;;;;18.35;63.17;100390.00;3562779;40;20524;-78
2021/07/03 07:36:58;;;;;;;7.00;2.47;;;;;;;18.27;64.36;100381.66;3555428;40;20111;-78
2021/07/03 07:39:25;;;;;;;5.33;2.30;;;;;;;18.36;63.75;100390.84;3562340;40;20478;-78
2021/07/03 07:41:51;;;;;;;7.85;3.00;;;;;;;18.34;63.96;100388.28;3569202;40;20053;-78
2021/07/03 07:44:21;;;;;;;6.23;2.70;;;;;;;18.46;63.77;100389.34;3562439;40;20061;-79
2021/07/03 07:46:48;;;;;;;7.30;2.95;;;;;;;18.50;63.98;100388.22;3565314;40;20897;-78
2021/07/03 07:49:20;;;;;;;7.87;3.10;;;;;;;18.57;63.48;100384.25;3583367;40;20056;-78
2021/07/03 07:51:47;;;;;;;6.50;2.47;;;;;;;18.59;64.01;100373.56;3573309;40;20123;-78
2021/07/03 07:54:15;;;;;;;7.55;3.05;;;;;;;18.69;62.96;100376.53;3579625;40;21106;-78
2021/07/03 07:56:42;;;;;;;5.90;2.72;;;;;;;18.76;62.99;100389.31;3578877;40;20049;-78
2021/07/03 07:59:12;;;;;;;7.07;3.05;;;;;;;18.86;62.07;100392.25;3569619;40;20099;-78
2021/07/03 08:01:40;;;;;;;6.65;2.78;;;;;;;18.88;62.47;100407.06;3569320;40;20053;-78
2021/07/03 08:04:08;;;;;;;6.80;2.90;;;;;;;18.90;62.08;100397.22;3581377;40;20081;-78
2021/07/03 08:06:38;;;;;;;6.82;2.95;;;;;;;18.95;61.90;100398.72;3575637;40;20100;-78
2021/07/03 08:09:06;;;;;;;7.13;3.38;;;;;;;18.91;61.99;100395.44;3576440;40;20061;-78
2021/07/03 08:11:35;;;;;;;;;;;;;;;19.04;60.58;100404.31;3577546;40;20051;-78
2021/07/03 08:14:06;;;;;;;5.60;2.80;;;;;;;18.99;61.45;100394.94;3560001;40;19984;-77
2021/07/03 08:16:34;;;;;;;6.75;2.60;;;;;;;19.01;61.86;100393.03;3569088;40;20057;-78
2021/07/03 08:19:03;;;;;;;6.82;2.80;;;;;;;19.03;61.71;100391.19;3568088;40;20061;-78
2021/07/03 08:21:33;;;;;;;6.45;3.00;;;;;;;19.08;61.70;100395.22;3577686;40;20045;-78
2021/07/03 08:24:02;;;;;;;6.38;2.63;;;;;;;19.07;61.73;100398.81;3560243;40;20069;-78
2021/07/03 08:26:29;;;;;;;10.55;3.15;;;;;;;19.06;62.31;100398.91;3568796;40;20077;-78
2021/07/03 08:28:55;;;;;;;7.07;3.23;;;;;;;18.99;62.15;100373.78;3574636;40;20949;-78
2021/07/03 08:31:22;;;;;;;6.10;2.70;;;;;;;19.06;63.10;100375.09;3564467;40;20064;-78
2021/07/03 08:33:49;;;;;;;6.73;3.07;;;;;;;19.07;62.85;100372.38;3574452;40;20049;-77
2021/07/03 08:36:20;;;;;;;6.95;3.03;;;;;;;19.21;62.03;100367.97;3570109;40;20571;-78
2021/07/03 08:38:47;;;;;;;7.03;3.03;;;;;;;19.26;62.21;100372.06;3555100;40;20148;-78
2021/07/03 08:41:14;;;;;;;5.40;2.47;;;;;;;19.28;61.88;100361.34;3570035;40;20120;-78
2021/07/03 08:43:48;;;;;;;6.33;2.97;;;;;;;19.38;61.65;100371.25;3577600;40;20068;-78
2021/07/03 08:46:18;;;;;;;5.13;2.45;;;;;;;19.40;61.39;100364.03;3570047;40;20452;-78
2021/07/03 08:48:58;;;;;;;5.28;2.35;;;;;;;19.44;61.29;100368.19;3574898;40;20061;-79
2021/07/03 08:51:27;;;;;;;5.85;2.60;;;;;;;19.50;62.05;100374.03;3566463;40;20105;-78
2021/07/03 08:54:01;;;;;;;6.05;2.22;;;;;;;19.54;61.97;100365.81;3556052;40;20072;-78
2021/07/03 08:56:28;;;;;;;6.95;3.08;;;;;;;19.56;62.05;100360.41;3565890;40;20046;-78
2021/07/03 08:58:55;;;;;;;6.50;3.05;;;;;;;19.66;61.60;100357.06;3576883;40;20056;-79
2021/07/03 09:01:27;;;;;;;7.13;2.95;;;;;;;19.76;61.58;100351.16;3576891;40;20045;-78
2021/07/03 09:03:56;;;;;;;6.72;2.55;;;;;;;19.81;61.55;100360.50;3555034;40;20057;-78
2021/07/03 09:06:32;;;;;;;6.63;2.78;;;;;;;19.93;60.91;100354.41;3561882;40;20061;-78
2021/07/03 09:09:01;;;;;;;6.03;2.67;;;;;;;19.97;61.27;100352.38;3553150;40;20501;-78
2021/07/03 09:11:31;;;;;;;6.00;2.67;;;;;;;20.00;61.03;100335.44;3569281;40;20411;-78
2021/07/03 09:14:00;;;;;;;5.82;2.88;;;;;;;20.09;61.06;100350.72;3565202;40;20057;-78
2021/07/03 09:16:30;;;;;;;7.43;3.03;;;;;;;20.18;61.01;100350.09;3566638;40;20055;-79
2021/07/03 09:19:00;;;;;;;6.45;2.90;;;;;;;20.19;60.42;100351.78;3558818;40;20062;-79
2021/07/03 09:21:31;;;;;;;7.28;2.90;;;;;;;20.18;60.18;100339.50;3580361;40;20057;-78
2021/07/03 09:24:12;;;;;;;9.63;3.75;;;;;;;20.30;59.70;100341.28;3558456;40;20059;-79
2021/07/03 09:26:39;;;;;;;6.95;3.05;;;;;;;20.26;60.12;100336.31;3549987;40;20423;-79
2021/07/03 09:29:11;;;;;;;8.15;3.45;;;;;;;20.39;59.61;100350.44;3563630;40;20072;-78
2021/07/03 09:31:42;;;;;;;7.32;3.00;;;;;;;20.39;59.78;100338.00;3567768;40;20128;-78
2021/07/03 09:34:13;;;;;;;7.53;3.25;;;;;;;20.43;59.19;100346.63;3563950;40;20066;-79
2021/07/03 09:36:50;;;;;;;7.78;3.58;;;;;;;20.40;59.09;100347.66;3565690;40;20061;-78
2021/07/03 09:39:25;;;;;;;6.93;2.88;;;;;;;20.42;59.48;100348.38;3557579;40;20135;-78
2021/07/03 09:41:52;;;;;;;6.18;2.72;;;;;;;20.32;59.79;100334.06;3577115;40;20505;-78
2021/07/03 09:44:21;;;;;;;8.98;3.78;;;;;;;20.33;60.06;100327.84;3582246;40;20062;-78
2021/07/03 09:46:51;;;;;;;6.88;3.28;;;;;;;20.36;59.57;100335.56;3583250;40;20057;-79
2021/07/03 09:49:25;;;;;;;7.53;3.47;;;;;;;20.36;59.91;100332.91;3570716;40;20056;-78
2021/07/03 09:51:56;;;;;;;8.63;3.20;;;;;;;20.36;60.08;100330.25;3575689;40;20071;-78
2021/07/03 09:54:31;;;;;;;6.65;3.25;;;;;;;20.35;59.87;100331.22;3566073;40;20053;-78
2021/07/03 09:56:58;;;;;;;7.95;3.22;;;;;;;20.32;60.67;100334.06;3559401;40;20075;-78
2021/07/03 09:59:30;;;;;;;5.88;2.85;;;;;;;20.27;60.58;100325.59;3560018;40;20060;-78
2021/07/03 10:02:04;;;;;;;7.75;3.80;;;;;;;20.33;60.49;100327.00;3568438;40;20665;-78
2021/07/03 10:04:33;;;;;;;8.60;3.83;;;;;;;20.25;61.37;100330.16;3565350;40;20488;-78
2021/07/03 10:07:08;;;;;;;8.35;3.45;;;;;;;20.27;60.72;100333.53;3566275;40;20058;-78
2021/07/03 10:13:16;;;;;;;7.50;3.55;;;;;;;20.18;60.50;100328.91;3569381;40;21958;-78
2021/07/03 10:15:49;;;;;;;7.65;3.70;;;;;;;20.18;61.17;100326.25;3563723;40;20045;-78
2021/07/03 10:18:22;;;;;;;10.13;4.00;;;;;;;20.21;62.19;100318.91;3573831;40;20326;-78
2021/07/03 10:20:52;;;;;;;9.43;4.60;;;;;;;20.30;61.87;100330.69;3566809;40;20073;-78
2021/07/03 10:23:19;;;;;;;9.43;4.28;;;;;;;20.30;61.78;100301.50;3569164;40;20098;-78
2021/07/03 10:25:50;;;;;;;9.02;4.25;;;;;;;20.47;61.52;100319.78;3574224;40;20050;-78
2021/07/03 10:28:31;;;;;;;10.50;4.95;;;;;;;20.55;60.73;100305.97;3571235;40;20057;-79
2021/07/03 10:31:14;;;;;;;10.15;4.53;;;;;;;20.62;60.52;100311.69;3556449;40;20116;-78
2021/07/03 10:33:44;;;;;;;8.43;4.47;;;;;;;20.66;60.61;100316.69;3566106;40;20100;-78
2021/07/03 10:36:26;;;;;;;10.15;4.95;;;;;;;20.76;60.79;100314.22;3577874;40;20151;-78
2021/07/03 10:38:57;;;;;;;8.27;4.05;;;;;;;20.89;60.84;100314.22;3556282;40;20063;-78
2021/07/03 10:41:28;;;;;;;8.98;3.95;;;;;;;20.97;60.71;100299.41;3569402;40;20146;-79
2021/07/03 10:44:07;;;;;;;10.00;4.53;;;;;;;21.19;59.82;100305.84;3575846;40;20065;-79
2021/07/03 10:46:41;;;;;;;12.98;5.82;;;;;;;21.25;59.74;100308.03;3557169;40;20065;-79
2021/07/03 10:49:12;;;;;;;11.25;4.72;;;;;;;21.38;59.81;100308.00;3560019;40;20064;-79
2021/07/03 10:51:47;;;;;;;12.60;5.65;;;;;;;21.47;59.45;100300.19;3561444;40;20077;-79
2021/07/03 10:54:27;;;;;;;8.40;3.85;;;;;;;21.56;59.47;100297.81;3559590;40;20401;-79
2021/07/03 10:57:00;;;;;;;7.40;3.95;;;;;;;21.69;60.55;100298.56;3557854;40;20057;-79
2021/07/03 10:59:29;;;;;;;9.85;4.72;;;;;;;21.85;59.47;100307.09;3564551;40;20103;-79
2021/07/03 11:02:16;;;;;;;13.70;5.47;;;;;;;22.10;58.56;100313.19;3571533;40;20099;-80
2021/07/03 11:04:50;;;;;;;10.20;4.90;;;;;;;22.20;58.38;100293.78;3565139;40;20142;-80
2021/07/03 11:07:20;;;;;;;10.55;4.82;;;;;;;22.25;57.25;100285.44;3562598;40;20098;-80
2021/07/03 11:09:48;;;;;;;9.07;4.10;;;;;;;22.32;57.97;100276.03;3577108;40;20111;-80
2021/07/03 11:12:22;;;;;;;11.13;5.07;;;;;;;22.54;57.04;100291.97;3575194;40;20457;-80
2021/07/03 11:15:00;;;;;;;10.15;5.60;;;;;;;22.77;57.13;100286.66;3560966;40;20041;-80
2021/07/03 11:17:28;;;;;;;9.23;4.38;;;;;;;22.96;55.81;100286.03;3567747;40;20088;-80
2021/07/03 11:19:55;;;;;;;10.35;4.93;;;;;;;23.13;55.39;100263.38;3563551;40;20084;-80
2021/07/03 11:22:25;;;;;;;8.20;4.05;;;;;;;23.56;54.73;100288.13;3570150;40;20045;-80
2021/07/03 11:24:57;;;;;;;9.88;4.68;;;;;;;23.93;54.34;100293.06;3555859;40;20378;-80
2021/07/03 11:27:32;;;;;;;8.30;4.03;;;;;;;24.29;55.30;100296.22;3572970;40;20053;-81
2021/07/03 11:30:06;;;;;;;9.48;4.57;;;;;;;24.65;52.87;100288.69;3568381;40;20064;-80
2021/07/03 11:32:36;;;;;;;9.75;4.78;;;;;;;24.91;51.55;100275.69;3574114;40;20079;-80
2021/07/03 11:35:06;;;;;;;9.05;4.60;;;;;;;25.01;50.66;100280.06;3575728;40;20617;-80
2021/07/03 11:37:35;;;;;;;9.63;5.25;;;;;;;25.09;49.80;100282.94;3569957;40;20091;-80
2021/07/03 11:40:09;;;;;;;7.43;3.55;;;;;;;24.95;49.02;100267.25;3576880;40;20098;-80
2021/07/03 11:42:39;;;;;;;6.30;3.08;;;;;;;24.99;49.65;100281.16;3561277;40;20067;-80
2021/07/03 11:45:13;;;;;;;9.52;4.10;;;;;;;24.97;50.18;100283.97;3569708;40;21292;-80
2021/07/03 11:48:16;;;;;;;8.32;4.38;;;;;;;24.89;49.71;100286.50;3552779;40;20049;-80